Time;durP1;ratioP1;P1;durP2;ratioP2;P2;SDS_P1;SDS_P2;PMS_P1;PMS_P2;Temp;Humidity;BMP_temperature;BMP_pressure;BME280_temperature;BME280_humidity;BME280_pressure;Samples;Min_cycle;Max_cycle;Signal;HPM_P1;HPM_P2
2023/07/24 00:00:54;;;;;;;2.08;1.83;;;;;;;21.03;69.58;98731.88;5049001;28;20056;-79
2023/07/24 00:03:21;;;;;;;2.28;2.08;;;;;;;21.02;69.52;98735.56;5031212;28;20052;-79
2023/07/24 00:05:47;;;;;;;3.55;2.30;;;;;;;21.02;69.54;98736.41;5032779;28;20060;-79
2023/07/24 00:08:14;;;;;;;2.42;2.22;;;;;;;21.02;69.54;98732.88;5011382;28;20054;-79
2023/07/24 00:10:40;;;;;;;5.90;2.33;;;;;;;21.02;69.59;98732.88;5029008;28;20057;-79
2023/07/24 00:13:07;;;;;;;4.20;2.20;;;;;;;21.02;69.48;98738.22;5011472;28;20488;-79
2023/07/24 00:15:33;;;;;;;2.78;2.40;;;;;;;21.01;69.40;98737.38;5039297;28;20056;-79
2023/07/24 00:17:59;;;;;;;2.70;2.20;;;;;;;21.02;69.63;98730.22;5048463;28;20049;-80
2023/07/24 00:20:26;;;;;;;2.60;2.13;;;;;;;21.02;69.55;98730.22;5049079;28;20056;-79
2023/07/24 00:22:52;;;;;;;3.20;2.50;;;;;;;21.01;69.72;98729.38;5048893;28;20044;-79
2023/07/24 00:25:19;;;;;;;2.55;2.20;;;;;;;21.03;69.62;98734.53;5027172;28;20049;-79
2023/07/24 00:27:45;;;;;;;4.53;2.50;;;;;;;21.02;69.59;98725.69;5032468;28;20053;-79
2023/07/24 00:30:12;;;;;;;4.90;2.55;;;;;;;21.01;69.59;98716.00;5032663;28;20049;-79
2023/07/24 00:32:38;;;;;;;2.38;2.10;;;;;;;21.00;69.56;98714.34;5032473;28;20730;-79
2023/07/24 00:35:05;;;;;;;2.58;2.08;;;;;;;20.98;69.58;98715.53;5033567;28;20054;-79
2023/07/24 00:37:32;;;;;;;2.28;2.08;;;;;;;20.98;69.50;98710.19;5052187;28;20064;-79
2023/07/24 00:39:58;;;;;;;2.50;2.30;;;;;;;20.95;69.69;98712.22;5052579;28;20207;-80
2023/07/24 00:42:24;;;;;;;2.55;2.10;;;;;;;20.93;69.72;98716.09;5052567;28;20059;-79
2023/07/24 00:44:51;;;;;;;2.60;2.08;;;;;;;20.90;69.80;98709.22;5051835;28;20487;-79
2023/07/24 00:47:17;;;;;;;4.00;2.45;;;;;;;20.89;70.06;98712.91;5034630;28;20054;-79
2023/07/24 00:49:44;;;;;;;3.80;2.20;;;;;;;20.88;70.28;98713.09;5032373;28;20053;-79
2023/07/24 00:52:11;;;;;;;2.28;2.08;;;;;;;20.87;70.43;98708.75;5014411;28;20530;-80
2023/07/24 00:54:38;;;;;;;3.45;2.10;;;;;;;20.87;70.49;98712.28;5032140;28;20480;-78
2023/07/24 00:57:05;;;;;;;2.25;1.70;;;;;;;20.88;70.43;98713.94;5043658;28;20499;-79
2023/07/24 00:59:32;;;;;;;2.42;2.15;;;;;;;20.88;70.43;98708.59;5041327;28;20059;-79
2023/07/24 01:01:59;;;;;;;2.28;1.90;;;;;;;20.88;70.75;98700.56;5032047;28;20076;-79
2023/07/24 01:04:25;;;;;;;5.78;2.40;;;;;;;20.89;70.51;98702.22;5032113;28;20104;-79
2023/07/24 01:06:52;;;;;;;3.13;2.55;;;;;;;20.91;70.35;98692.19;5031843;28;20536;-79
2023/07/24 01:09:18;;;;;;;2.65;2.13;;;;;;;20.90;70.62;98701.22;5036501;28;20132;-79
2023/07/24 01:12:21;;;;;;;5.00;2.63;;;;;;;20.87;71.25;98690.88;5024681;28;20045;-79
2023/07/24 01:14:54;;;;;;;2.13;1.85;;;;;;;20.90;71.00;98690.50;4995718;28;20053;-79
2023/07/24 01:17:25;;;;;;;2.15;1.95;;;;;;;20.91;70.97;98689.53;5011926;28;20050;-79
2023/07/24 01:19:55;;;;;;;2.47;2.00;;;;;;;20.92;71.00;98691.16;5029938;28;20177;-79
2023/07/24 01:22:28;;;;;;;2.72;2.05;;;;;;;20.90;71.24;98692.38;5031707;28;20427;-80
2023/07/24 01:25:03;;;;;;;2.80;2.53;;;;;;;20.93;70.73;98686.66;5031530;28;20392;-79
2023/07/24 01:27:29;;;;;;;4.53;2.30;;;;;;;20.93;70.94;98682.13;5013982;28;20415;-79
2023/07/24 01:29:56;;;;;;;2.67;2.03;;;;;;;20.93;70.76;98687.47;5045849;28;20071;-79
2023/07/24 01:32:23;;;;;;;4.00;2.05;;;;;;;20.94;70.85;98685.66;5033062;28;20135;-79
2023/07/24 01:34:53;;;;;;;2.85;2.45;;;;;;;20.94;71.11;98682.97;5051262;28;20049;-79
2023/07/24 01:37:21;;;;;;;3.65;2.38;;;;;;;20.95;71.28;98680.13;5050469;28;20509;-79
2023/07/24 01:39:48;;;;;;;6.93;2.25;;;;;;;20.97;71.01;98677.22;5040717;28;20345;-79
2023/07/24 01:42:14;;;;;;;2.80;2.40;;;;;;;20.98;71.07;98662.03;5031116;28;20092;-79
2023/07/24 01:44:41;;;;;;;2.95;2.40;;;;;;;20.99;70.93;98675.22;5030841;28;20049;-79
2023/07/24 01:47:07;;;;;;;3.03;2.67;;;;;;;20.99;71.00;98671.72;5031311;28;20053;-79
2023/07/24 01:49:34;;;;;;;4.90;2.13;;;;;;;20.99;71.01;98661.00;5036539;28;20057;-79
2023/07/24 01:52:00;;;;;;;2.22;2.03;;;;;;;21.00;71.09;98662.69;5050819;28;20060;-79
2023/07/24 01:54:26;;;;;;;3.45;2.40;;;;;;;21.00;71.21;98660.81;5050883;28;20546;-79
2023/07/24 01:56:53;;;;;;;4.22;2.15;;;;;;;21.00;71.02;98655.47;5050646;28;20053;-79
2023/07/24 01:59:19;;;;;;;2.97;2.28;;;;;;;21.01;71.23;98656.31;5049520;28;20396;-79
2023/07/24 02:01:46;;;;;;;2.38;2.17;;;;;;;21.01;71.03;98645.63;5031131;28;20061;-79
2023/07/24 02:04:12;;;;;;;3.08;2.13;;;;;;;21.01;70.90;98656.31;5030578;28;20139;-79
2023/07/24 02:06:38;;;;;;;2.67;2.10;;;;;;;21.03;71.00;98648.94;5030582;28;20267;-79
2023/07/24 02:09:05;;;;;;;2.55;1.95;;;;;;;21.03;70.87;98640.91;5030876;28;20049;-79
2023/07/24 02:11:31;;;;;;;3.97;2.40;;;;;;;21.03;71.12;98644.41;5046586;28;20574;-79
2023/07/24 02:13:59;;;;;;;5.10;2.55;;;;;;;21.03;70.90;98646.25;5050523;28;20048;-79
2023/07/24 02:16:27;;;;;;;3.28;2.03;;;;;;;21.04;70.95;98645.25;5050419;28;20522;-79
2023/07/24 02:18:54;;;;;;;4.20;2.63;;;;;;;21.04;71.01;98634.56;5049935;28;20053;-79
2023/07/24 02:21:20;;;;;;;4.88;2.40;;;;;;;21.03;70.99;98636.41;5037907;28;20057;-79
2023/07/24 02:23:47;;;;;;;4.38;2.30;;;;;;;21.03;70.94;98628.38;5012851;28;20050;-79
2023/07/24 02:26:13;;;;;;;4.95;2.30;;;;;;;21.02;70.97;98629.38;5030419;28;20053;-80
2023/07/24 02:28:39;;;;;;;3.45;2.10;;;;;;;21.01;70.87;98611.66;5030094;28;20506;-79
2023/07/24 02:31:06;;;;;;;2.50;2.28;;;;;;;21.00;70.87;98620.69;5037363;28;20067;-79
2023/07/24 02:33:32;;;;;;;4.75;2.08;;;;;;;21.00;70.97;98622.56;5038418;28;20053;-79
2023/07/24 02:36:00;;;;;;;2.53;2.28;;;;;;;20.99;71.10;98618.22;5026076;28;20053;-80
2023/07/24 02:38:27;;;;;;;2.85;2.33;;;;;;;20.98;70.94;98609.38;5049845;28;20135;-79
2023/07/24 02:40:53;;;;;;;4.43;2.40;;;;;;;21.00;71.05;98614.53;5046832;28;20479;-79
2023/07/24 02:43:20;;;;;;;5.47;2.35;;;;;;;20.99;70.99;98621.72;5030088;28;20045;-80
2023/07/24 02:45:46;;;;;;;3.28;2.33;;;;;;;20.99;70.99;98619.03;5029784;28;20053;-79
2023/07/24 02:48:13;;;;;;;3.35;2.60;;;;;;;20.99;70.89;98626.22;5028906;28;20055;-79
2023/07/24 02:50:39;;;;;;;3.45;2.50;;;;;;;20.99;71.15;98615.53;5030620;28;20068;-79
2023/07/24 02:53:06;;;;;;;3.70;2.63;;;;;;;20.99;70.97;98612.84;5049764;28;20052;-79
2023/07/24 02:55:32;;;;;;;3.80;2.60;;;;;;;20.98;70.91;98616.56;5049775;28;20067;-80
2023/07/24 02:57:58;;;;;;;3.15;2.85;;;;;;;20.97;71.07;98615.72;5049476;28;20419;-79
2023/07/24 03:00:25;;;;;;;6.45;2.88;;;;;;;20.96;70.75;98608.72;5049685;28;20059;-79
2023/07/24 03:02:54;;;;;;;7.50;3.00;;;;;;;20.95;71.48;98615.06;5047642;28;20053;-79
2023/07/24 03:05:21;;;;;;;4.00;3.03;;;;;;;20.94;71.12;98614.22;5049401;28;20045;-79
2023/07/24 03:07:47;;;;;;;3.67;3.17;;;;;;;20.94;71.16;98603.53;5049508;28;20126;-79
2023/07/24 03:10:14;;;;;;;5.80;3.42;;;;;;;20.94;71.22;98611.56;5049581;28;20064;-79
2023/07/24 03:12:40;;;;;;;5.40;4.43;;;;;;;20.95;71.19;98607.91;5038479;28;20629;-79
2023/07/24 03:15:07;;;;;;;8.18;4.13;;;;;;;20.93;71.03;98612.59;5029364;28;20052;-79
2023/07/24 03:20:18;;;;;;;9.30;4.93;;;;;;;20.92;71.19;98607.41;5073337;22;20079;-75
2023/07/24 03:22:45;;;;;;;6.80;5.25;;;;;;;20.91;71.09;98617.28;5061047;28;20117;-75
2023/07/24 03:25:13;;;;;;;10.02;5.72;;;;;;;20.92;71.49;98610.94;5090351;28;20139;-76
2023/07/24 03:27:40;;;;;;;7.60;5.95;;;;;;;20.90;71.06;98610.25;5090431;28;20442;-74
2023/07/24 03:30:07;;;;;;;7.93;7.03;;;;;;;20.91;71.12;98606.59;5090595;28;20051;-75
2023/07/24 03:32:38;;;;;;;8.73;6.00;;;;;;;20.90;71.44;98612.94;5086208;28;20052;-75
2023/07/24 03:35:06;;;;;;;8.02;6.57;;;;;;;20.90;71.40;98610.25;5070364;28;20063;-75
2023/07/24 03:37:35;;;;;;;11.50;6.38;;;;;;;20.90;71.84;98606.78;5070339;28;20057;-75
2023/07/24 03:40:02;;;;;;;10.15;7.05;;;;;;;20.90;71.28;98599.56;5070277;28;20147;-75
2023/07/24 03:42:31;;;;;;;12.90;7.15;;;;;;;20.89;71.39;98597.91;5070286;28;20125;-75
2023/07/24 03:44:58;;;;;;;11.80;7.43;;;;;;;20.89;71.34;98589.88;5089646;28;20131;-75
2023/07/24 03:47:24;;;;;;;10.23;6.60;;;;;;;20.89;71.32;98576.50;5072549;28;20097;-75
2023/07/24 03:49:51;;;;;;;9.20;6.40;;;;;;;20.89;71.46;98578.38;5090497;28;20048;-75
2023/07/24 03:52:18;;;;;;;7.97;6.30;;;;;;;20.88;71.28;98579.38;5090372;28;20488;-75
2023/07/24 03:54:45;;;;;;;10.98;6.50;;;;;;;20.88;71.45;98582.88;5073250;28;20040;-75
2023/07/24 03:57:11;;;;;;;7.00;5.78;;;;;;;20.86;71.18;98571.50;5086128;28;20142;-75
2023/07/24 03:59:38;;;;;;;7.05;5.75;;;;;;;20.84;71.25;98565.50;5054151;28;20505;-75
2023/07/24 04:02:05;;;;;;;6.47;5.55;;;;;;;20.82;71.33;98572.91;5074256;28;20051;-76
2023/07/24 04:04:35;;;;;;;6.68;5.82;;;;;;;20.80;71.46;98566.88;5085856;28;20055;-75
2023/07/24 04:07:02;;;;;;;9.93;6.00;;;;;;;20.77;71.33;98553.88;5094058;28;20048;-75
2023/07/24 04:09:29;;;;;;;20.00;5.80;;;;;;;20.75;71.30;98559.41;5094224;28;20044;-75
2023/07/24 04:11:56;;;;;;;7.50;5.43;;;;;;;20.73;71.64;98557.94;5094071;28;20044;-75
2023/07/24 04:14:22;;;;;;;9.93;5.32;;;;;;;20.70;72.00;98543.94;5086663;28;20045;-76
2023/07/24 04:16:49;;;;;;;6.60;5.47;;;;;;;20.70;71.84;98549.28;5073704;28;20048;-75
2023/07/24 04:19:16;;;;;;;9.23;5.20;;;;;;;20.69;71.78;98552.13;5073693;28;20505;-75
2023/07/24 04:21:42;;;;;;;8.25;5.88;;;;;;;20.69;72.04;98536.09;5073796;28;20049;-75
2023/07/24 04:24:09;;;;;;;8.35;5.40;;;;;;;20.67;71.97;98532.78;5075891;28;20052;-75
2023/07/24 04:26:36;;;;;;;7.00;5.28;;;;;;;20.65;71.93;98535.63;5093457;28;20044;-75
2023/07/24 04:29:03;;;;;;;6.40;5.20;;;;;;;20.66;72.07;98541.78;5076157;28;20153;-75
2023/07/24 04:31:30;;;;;;;6.25;5.20;;;;;;;20.64;72.31;98528.59;5094036;28;20047;-75
2023/07/24 04:33:56;;;;;;;5.38;4.65;;;;;;;20.65;72.45;98538.31;5093707;28;20052;-74
2023/07/24 04:36:23;;;;;;;6.10;5.20;;;;;;;20.65;72.66;98535.63;5090942;28;20143;-75
2023/07/24 04:38:50;;;;;;;7.75;6.00;;;;;;;20.67;72.60;98527.44;5090929;28;20153;-75
2023/07/24 04:41:16;;;;;;;9.38;5.35;;;;;;;20.68;72.36;98537.09;5055495;28;20066;-74
2023/07/24 04:43:43;;;;;;;7.30;5.47;;;;;;;20.69;72.57;98541.44;5073548;28;20048;-75
2023/07/24 04:46:09;;;;;;;8.63;5.13;;;;;;;20.69;72.45;98536.94;5086231;28;20055;-74
2023/07/24 04:48:36;;;;;;;9.50;5.60;;;;;;;20.69;72.36;98539.59;5093921;28;20085;-75
2023/07/24 04:51:03;;;;;;;6.80;5.25;;;;;;;20.69;72.29;98544.94;5093448;28;20052;-75
2023/07/24 04:53:30;;;;;;;6.75;5.57;;;;;;;20.69;72.40;98547.63;5075438;28;20067;-75
2023/07/24 04:55:56;;;;;;;6.10;5.07;;;;;;;20.68;72.12;98540.59;5084109;28;20056;-75
2023/07/24 04:58:24;;;;;;;6.32;4.78;;;;;;;20.69;72.52;98536.09;5055454;28;20071;-75
2023/07/24 05:00:50;;;;;;;4.60;4.20;;;;;;;20.66;72.30;98526.59;5093204;28;20514;-75
2023/07/24 05:03:18;;;;;;;5.93;5.07;;;;;;;20.65;72.22;98530.28;5093387;28;20091;-76
2023/07/24 05:05:48;;;;;;;6.90;4.90;;;;;;;20.64;72.76;98533.94;5092919;28;20056;-75
2023/07/24 05:08:15;;;;;;;8.27;5.40;;;;;;;20.65;72.41;98526.78;5092951;28;20059;-76
2023/07/24 05:10:41;;;;;;;5.20;4.68;;;;;;;20.63;72.41;98526.94;5075441;28;20056;-74
2023/07/24 05:13:08;;;;;;;6.85;4.78;;;;;;;20.61;72.42;98518.31;5072884;28;20488;-75
2023/07/24 05:15:38;;;;;;;6.78;4.13;;;;;;;20.60;72.58;98516.66;5072289;28;20094;-75
2023/07/24 05:18:05;;;;;;;4.97;4.07;;;;;;;20.59;72.48;98509.63;5072486;28;20560;-76
2023/07/24 05:20:31;;;;;;;5.00;3.90;;;;;;;20.58;72.58;98502.63;5084529;28;20059;-75
2023/07/24 05:22:58;;;;;;;4.55;3.63;;;;;;;20.57;72.51;98498.28;5084244;28;20044;-75
2023/07/24 05:25:25;;;;;;;4.50;3.70;;;;;;;20.56;72.55;98496.63;5055208;28;20098;-75
2023/07/24 05:27:51;;;;;;;6.07;3.90;;;;;;;20.56;72.73;98507.34;5072551;28;20059;-75
2023/07/24 05:30:18;;;;;;;3.75;3.33;;;;;;;20.55;72.63;98513.66;5079652;28;20052;-75
2023/07/24 05:32:45;;;;;;;3.92;3.28;;;;;;;20.54;72.84;98522.72;5092728;28;20044;-75
2023/07/24 05:35:11;;;;;;;4.28;3.78;;;;;;;20.52;72.62;98528.22;5092316;28;20095;-75
2023/07/24 05:37:38;;;;;;;5.07;4.10;;;;;;;20.51;72.93;98525.75;5092745;28;20083;-74
2023/07/24 05:40:05;;;;;;;6.85;3.97;;;;;;;20.51;73.08;98520.41;5072826;28;20049;-75
2023/07/24 05:42:32;;;;;;;4.00;3.60;;;;;;;20.49;73.08;98536.63;5072220;28;20439;-76
2023/07/24 05:44:58;;;;;;;5.38;3.80;;;;;;;20.48;72.94;98529.59;5071945;28;20102;-76
2023/07/24 05:47:25;;;;;;;5.68;4.30;;;;;;;20.47;73.12;98530.63;5054276;28;20048;-77
2023/07/24 05:49:52;;;;;;;4.07;3.70;;;;;;;20.47;73.25;98529.78;5086318;28;20056;-76
2023/07/24 05:52:19;;;;;;;4.75;4.15;;;;;;;20.46;73.23;98530.81;5092785;28;20105;-77
2023/07/24 05:54:46;;;;;;;3.95;3.58;;;;;;;20.46;73.45;98531.66;5092294;28;20052;-76
2023/07/24 05:57:12;;;;;;;6.45;3.88;;;;;;;20.46;73.66;98525.47;5091946;28;20055;-76
2023/07/24 05:59:39;;;;;;;3.92;2.88;;;;;;;20.46;73.68;98518.28;5081653;28;20102;-76
2023/07/24 06:02:07;;;;;;;5.60;3.50;;;;;;;20.48;73.55;98521.59;5070953;28;20110;-78
2023/07/24 06:04:33;;;;;;;4.00;3.30;;;;;;;20.49;73.61;98531.28;5071592;28;20531;-78
2023/07/24 06:07:00;;;;;;;4.60;3.30;;;;;;;20.51;73.65;98523.06;5071629;28;20053;-77
2023/07/24 06:09:27;;;;;;;4.47;3.22;;;;;;;20.51;73.57;98526.59;5059121;28;20502;-77
2023/07/24 06:11:53;;;;;;;3.53;3.20;;;;;;;20.52;73.63;98527.41;5073384;28;20265;-77
2023/07/24 06:14:20;;;;;;;3.08;2.78;;;;;;;20.54;73.56;98528.91;5092044;28;20428;-77
2023/07/24 06:16:47;;;;;;;3.95;3.13;;;;;;;20.55;73.66;98524.38;5091670;28;20056;-77
2023/07/24 06:19:13;;;;;;;4.13;2.92;;;;;;;20.55;73.57;98530.56;5091060;28;20076;-77
2023/07/24 06:21:40;;;;;;;3.42;2.72;;;;;;;20.57;73.53;98525.84;5071167;28;20615;-77
2023/07/24 06:24:11;;;;;;;3.28;2.53;;;;;;;20.57;73.50;98530.38;5071476;28;20056;-77
2023/07/24 06:26:39;;;;;;;2.90;2.60;;;;;;;20.58;73.63;98534.69;5053487;28;20136;-77
2023/07/24 06:29:05;;;;;;;5.40;2.72;;;;;;;20.59;73.55;98536.34;5053521;28;20056;-77
2023/07/24 06:31:32;;;;;;;5.55;1.77;;;;;;;20.60;73.60;98537.19;5087863;28;20067;-77
2023/07/24 06:33:59;;;;;;;3.45;2.10;;;;;;;20.60;73.37;98537.19;5060772;28;20076;-77
2023/07/24 06:36:26;;;;;;;2.50;1.75;;;;;;;20.59;73.27;98536.34;5071213;28;20055;-77
2023/07/24 06:38:53;;;;;;;3.25;1.20;;;;;;;20.56;73.34;98542.91;5071011;28;20056;-77
2023/07/24 06:41:22;;;;;;;1.42;1.33;;;;;;;20.54;73.33;98552.13;5083344;28;20055;-77
2023/07/24 06:43:49;;;;;;;1.60;1.10;;;;;;;20.50;73.20;98559.69;5074323;28;20097;-77
2023/07/24 06:46:16;;;;;;;3.05;1.27;;;;;;;20.44;72.64;98555.88;5091124;28;20055;-77
2023/07/24 06:48:43;;;;;;;2.25;1.45;;;;;;;20.38;72.52;98563.78;5091998;28;20123;-77
2023/07/24 06:51:10;;;;;;;1.80;1.27;;;;;;;20.29;72.64;98555.00;5081955;28;20056;-86
2023/07/24 06:53:36;;;;;;;1.42;1.05;;;;;;;20.21;72.66;98555.91;5070898;28;20048;-77
2023/07/24 06:56:04;;;;;;;3.42;1.20;;;;;;;20.13;73.03;98558.66;5052932;28;20060;-78
2023/07/24 06:58:31;;;;;;;2.45;1.40;;;;;;;20.04;73.49;98558.72;5070717;28;20128;-78
2023/07/24 07:00:57;;;;;;;1.17;1.08;;;;;;;20.01;73.79;98564.44;5074176;28;20109;-78
2023/07/24 07:03:24;;;;;;;1.70;1.20;;;;;;;19.98;73.82;98562.13;5090956;28;20587;-78
2023/07/24 07:05:51;;;;;;;1.23;1.13;;;;;;;19.96;74.41;98561.41;5090644;28;20044;-78
2023/07/24 07:08:17;;;;;;;1.30;1.20;;;;;;;19.93;74.83;98554.59;5090663;28;20048;-78
2023/07/24 07:10:47;;;;;;;2.67;1.27;;;;;;;19.95;74.99;98562.44;5090805;28;20083;-78
2023/07/24 07:13:14;;;;;;;1.85;1.30;;;;;;;19.97;75.10;98567.59;5070966;28;20136;-78
2023/07/24 07:15:41;;;;;;;2.40;1.20;;;;;;;19.98;75.33;98562.13;5070575;28;20060;-78
2023/07/24 07:18:07;;;;;;;2.88;1.30;;;;;;;20.01;75.27;98555.59;5070648;28;20048;-78
2023/07/24 07:20:34;;;;;;;1.05;0.95;;;;;;;20.03;75.87;98553.53;5052708;28;20139;-79
2023/07/24 07:23:01;;;;;;;2.13;1.42;;;;;;;20.09;75.85;98563.53;5084866;28;20412;-78
2023/07/24 07:25:27;;;;;;;1.55;1.20;;;;;;;20.13;76.01;98543.47;5090547;28;20082;-78
2023/07/24 07:27:54;;;;;;;2.30;1.17;;;;;;;20.17;75.97;98544.78;5090423;28;20052;-78
2023/07/24 07:30:21;;;;;;;1.30;1.20;;;;;;;20.22;76.04;98546.88;5090839;28;20048;-78
2023/07/24 07:32:48;;;;;;;1.35;1.10;;;;;;;20.28;75.70;98548.00;5090353;28;20048;-78
2023/07/24 07:35:18;;;;;;;1.42;1.13;;;;;;;20.33;75.77;98556.31;5089836;28;20058;-78
2023/07/24 07:37:45;;;;;;;1.20;1.00;;;;;;;20.36;75.63;98549.78;5089954;28;20500;-78
2023/07/24 07:40:12;;;;;;;2.20;1.25;;;;;;;20.41;75.45;98555.44;5090588;28;20052;-79
2023/07/24 07:42:39;;;;;;;1.17;1.08;;;;;;;20.43;75.55;98561.41;5084449;28;20053;-78
2023/07/24 07:45:08;;;;;;;2.58;1.02;;;;;;;20.45;75.21;98564.75;5070170;28;20063;-78
2023/07/24 07:47:37;;;;;;;1.63;1.20;;;;;;;20.46;75.41;98558.38;5070493;28;20060;-78
2023/07/24 07:50:04;;;;;;;1.38;1.08;;;;;;;20.50;75.62;98553.50;5052471;28;20572;-79
2023/07/24 07:52:31;;;;;;;2.47;1.20;;;;;;;20.55;75.83;98551.09;5070222;28;20040;-79
2023/07/24 07:54:57;;;;;;;1.23;0.90;;;;;;;20.60;76.16;98553.22;5069754;28;20439;-78
2023/07/24 07:57:26;;;;;;;1.63;1.25;;;;;;;20.66;76.39;98547.97;5070356;28;20048;-79
2023/07/24 07:59:52;;;;;;;1.50;1.13;;;;;;;20.75;76.32;98545.22;5069975;28;20481;-79
2023/07/24 08:02:19;;;;;;;1.23;1.13;;;;;;;20.82;76.12;98546.97;5069852;28;20090;-79
2023/07/24 08:04:45;;;;;;;1.50;1.40;;;;;;;20.88;75.80;98556.13;5068167;28;20057;-79
2023/07/24 08:07:12;;;;;;;1.48;1.30;;;;;;;20.93;75.50;98558.28;5070374;28;20051;-79
2023/07/24 08:09:39;;;;;;;2.88;1.70;;;;;;;20.99;75.46;98556.69;5069967;28;20049;-79
2023/07/24 08:12:08;;;;;;;1.63;1.50;;;;;;;21.02;75.31;98553.66;5069855;28;20055;-78
2023/07/24 08:14:35;;;;;;;1.80;1.70;;;;;;;21.07;75.05;98556.59;5083188;28;20052;-78
2023/07/24 08:17:03;;;;;;;2.05;1.90;;;;;;;21.11;74.79;98557.88;5090406;28;20592;-79
2023/07/24 08:19:29;;;;;;;2.03;1.92;;;;;;;21.15;74.80;98567.19;5072265;28;20085;-79
2023/07/24 08:21:56;;;;;;;2.20;1.98;;;;;;;21.19;74.42;98557.78;5072035;28;20052;-78
2023/07/24 08:24:23;;;;;;;4.95;2.67;;;;;;;21.21;74.28;98555.75;5080331;28;20048;-78
2023/07/24 08:26:50;;;;;;;2.40;2.17;;;;;;;21.22;73.49;98541.34;5069737;28;20053;-79
2023/07/24 08:29:16;;;;;;;2.85;2.60;;;;;;;21.23;73.07;98550.19;5070260;28;20048;-78
2023/07/24 08:31:43;;;;;;;2.50;2.30;;;;;;;21.21;72.79;98545.06;5069951;28;20044;-78
2023/07/24 08:34:10;;;;;;;3.22;2.47;;;;;;;21.20;73.37;98546.06;5056429;28;20450;-79
2023/07/24 08:36:37;;;;;;;2.55;2.35;;;;;;;21.23;74.10;98552.88;5089781;28;20044;-79
2023/07/24 08:39:04;;;;;;;2.60;2.30;;;;;;;21.26;74.59;98547.16;5090423;28;20048;-79
2023/07/24 08:41:34;;;;;;;2.83;2.30;;;;;;;21.32;74.97;98542.91;5088859;28;20105;-79
2023/07/24 08:44:01;;;;;;;3.55;2.58;;;;;;;21.40;75.23;98544.63;5087666;28;20044;-79
2023/07/24 08:46:35;;;;;;;3.17;2.88;;;;;;;21.47;75.31;98549.06;5072806;28;20506;-78
2023/07/24 08:49:01;;;;;;;3.63;2.60;;;;;;;21.62;75.36;98548.19;5093172;28;20473;-78
2023/07/24 08:51:35;;;;;;;4.03;2.80;;;;;;;21.70;73.54;98541.88;5093380;28;20056;-78
2023/07/24 08:54:17;;;;;;;4.07;3.33;;;;;;;21.80;73.56;98545.13;5093084;28;20120;-78
2023/07/24 08:56:50;;;;;;;3.33;3.03;;;;;;;21.84;73.69;98540.19;5053191;28;20053;-78
2023/07/24 08:59:16;;;;;;;3.88;3.50;;;;;;;21.88;73.18;98538.78;5061679;28;20471;-78
2023/07/24 09:01:44;;;;;;;3.70;3.28;;;;;;;21.91;73.26;98543.78;5073040;28;20052;-78
2023/07/24 09:04:11;;;;;;;3.10;2.90;;;;;;;21.94;73.21;98535.34;5073155;28;20067;-78
2023/07/24 09:06:38;;;;;;;3.45;3.00;;;;;;;21.98;73.39;98536.63;5055053;28;20076;-78
2023/07/24 09:09:15;;;;;;;3.88;3.30;;;;;;;22.00;72.57;98531.06;5041434;28;20052;-78
2023/07/24 09:11:49;;;;;;;3.50;3.20;;;;;;;22.10;73.73;98528.06;5093359;28;20058;-78
2023/07/24 09:14:21;;;;;;;4.07;3.45;;;;;;;22.21;73.29;98534.75;5093441;28;20143;-78
2023/07/24 09:16:48;;;;;;;4.40;3.50;;;;;;;22.33;73.78;98532.38;5093196;28;20059;-78
2023/07/24 09:19:19;;;;;;;3.80;3.50;;;;;;;22.41;72.09;98531.38;5157028;22;20064;-79
2023/07/24 09:21:52;;;;;;;4.43;4.03;;;;;;;22.51;71.87;98531.88;5072690;28;20139;-79
2023/07/24 09:24:18;;;;;;;4.53;3.67;;;;;;;22.55;71.20;98535.88;5072528;28;20049;-81
2023/07/24 09:26:52;;;;;;;4.57;4.18;;;;;;;22.54;70.16;98542.19;5071751;28;20055;-81
2023/07/24 09:29:30;;;;;;;6.68;4.43;;;;;;;22.51;69.35;98537.25;5072296;28;20102;-79
2023/07/24 09:31:57;;;;;;;5.25;4.50;;;;;;;22.48;69.57;98529.59;5045335;28;20048;-81
2023/07/24 09:34:25;;;;;;;5.68;4.97;;;;;;;22.39;69.04;98532.41;5046635;28;20128;-81
2023/07/24 09:36:52;;;;;;;5.97;4.88;;;;;;;22.30;69.67;98535.44;5034095;28;20056;-81
2023/07/24 09:39:25;;;;;;;5.13;4.57;;;;;;;22.19;70.04;98534.94;5052163;28;20052;-81
2023/07/24 09:42:03;;;;;;;12.73;5.57;;;;;;;22.13;69.46;98543.78;5069853;28;20135;-81
2023/07/24 09:44:31;;;;;;;6.32;4.90;;;;;;;22.14;70.67;98542.75;5072260;28;20047;-80
2023/07/24 09:46:58;;;;;;;5.88;5.28;;;;;;;22.13;70.56;98546.44;5071668;28;20048;-80
2023/07/24 09:49:45;;;;;;;6.72;5.00;;;;;;;22.12;70.25;98534.88;5072266;28;20049;-80
2023/07/24 09:52:13;;;;;;;7.97;5.30;;;;;;;22.12;70.54;98528.69;5054755;28;20068;-80
2023/07/24 09:54:56;;;;;;;6.30;5.13;;;;;;;22.08;69.46;98522.06;5052066;28;20131;-80
2023/07/24 09:57:25;;;;;;;5.85;4.90;;;;;;;22.16;71.17;98527.28;5051396;28;20075;-80
2023/07/24 09:59:54;;;;;;;6.72;5.47;;;;;;;22.23;71.88;98521.97;5034058;28;20045;-80
2023/07/24 10:02:21;;;;;;;7.88;5.40;;;;;;;22.32;72.06;98520.00;5067219;28;20055;-81
2023/07/24 10:04:49;;;;;;;5.80;5.25;;;;;;;22.42;71.46;98523.16;5054099;28;20079;-80
2023/07/24 10:07:17;;;;;;;7.40;4.95;;;;;;;22.50;70.27;98514.97;5071678;28;20060;-82
2023/07/24 10:09:44;;;;;;;9.40;4.63;;;;;;;22.56;69.52;98510.69;5071833;28;20081;-80
2023/07/24 10:12:10;;;;;;;5.88;4.95;;;;;;;22.60;69.06;98505.75;5060408;28;20051;-81
2023/07/24 10:14:38;;;;;;;5.55;4.95;;;;;;;22.63;69.53;98503.53;5051351;28;20487;-80
2023/07/24 10:17:05;;;;;;;5.18;4.68;;;;;;;22.69;69.58;98511.81;5051387;28;20049;-80
2023/07/24 10:19:44;;;;;;;5.95;5.35;;;;;;;22.74;68.29;98512.03;5051452;28;20057;-80
2023/07/24 10:22:19;;;;;;;5.97;4.70;;;;;;;22.88;68.58;98510.25;5059650;28;20080;-80
2023/07/24 10:24:46;;;;;;;6.30;5.00;;;;;;;23.04;69.96;98511.78;5071162;28;20095;-80
2023/07/24 10:27:13;;;;;;;8.18;4.70;;;;;;;23.20;70.20;98507.06;5053294;28;20051;-80
2023/07/24 10:29:39;;;;;;;7.38;4.65;;;;;;;23.34;69.04;98513.34;5057241;28;20049;-80
2023/07/24 10:32:26;;;;;;;5.35;4.80;;;;;;;23.38;67.76;98509.22;5050948;28;20065;-80
2023/07/24 10:35:08;;;;;;;5.20;4.70;;;;;;;23.46;65.75;98509.06;5051180;28;20045;-80
2023/07/24 10:37:38;;;;;;;5.03;4.18;;;;;;;23.53;67.45;98501.00;5045496;28;20052;-80
2023/07/24 10:40:05;;;;;;;5.10;4.43;;;;;;;23.61;67.97;98516.09;5036732;28;20128;-80
2023/07/24 10:42:33;;;;;;;5.10;4.03;;;;;;;23.70;67.12;98509.53;5067677;28;20087;-80
2023/07/24 10:45:05;;;;;;;5.20;4.38;;;;;;;23.77;65.65;98494.22;5070818;28;20056;-80
2023/07/24 10:47:32;;;;;;;4.82;4.25;;;;;;;23.89;67.39;98488.25;5070577;28;20404;-80
2023/07/24 10:50:00;;;;;;;5.03;3.78;;;;;;;24.02;66.94;98482.03;5059966;28;20048;-81
2023/07/24 10:52:29;;;;;;;4.10;3.70;;;;;;;24.15;65.27;98484.75;5050965;28;20048;-80
2023/07/24 10:54:55;;;;;;;4.53;4.07;;;;;;;24.26;64.81;98480.59;5033061;28;20114;-80
2023/07/24 10:57:29;;;;;;;5.15;4.40;;;;;;;24.32;63.97;98482.47;5050663;28;20052;-80
2023/07/24 10:59:56;;;;;;;5.22;4.25;;;;;;;24.43;64.52;98488.25;5054263;28;20465;-80
2023/07/24 11:02:23;;;;;;;5.18;4.35;;;;;;;24.46;63.71;98501.28;5055558;28;20044;-80
2023/07/24 11:04:49;;;;;;;4.60;3.97;;;;;;;24.46;63.29;98495.91;5068410;28;20106;-80
2023/07/24 11:07:16;;;;;;;5.07;3.92;;;;;;;24.43;62.50;98490.94;5070300;28;20056;-80
2023/07/24 11:09:43;;;;;;;5.57;4.15;;;;;;;24.36;62.32;98493.63;5067687;28;20045;-80
2023/07/24 11:12:14;;;;;;;5.38;3.55;;;;;;;24.27;61.43;98490.34;5050401;28;20562;-81
2023/07/24 11:14:51;;;;;;;4.70;3.47;;;;;;;24.17;61.24;98500.69;5050226;28;20041;-80
2023/07/24 11:17:18;;;;;;;4.53;4.13;;;;;;;24.16;62.67;98499.03;5050448;28;20064;-80
2023/07/24 11:19:45;;;;;;;9.48;4.40;;;;;;;24.11;61.92;98493.47;5050599;28;20126;-80
2023/07/24 11:22:11;;;;;;;5.50;4.50;;;;;;;24.05;61.88;98489.69;5050616;28;20063;-80
2023/07/24 11:24:47;;;;;;;4.38;3.97;;;;;;;23.98;61.26;98492.38;5032929;28;20051;-79
2023/07/24 11:27:18;;;;;;;5.22;4.07;;;;;;;23.99;61.54;98494.03;5051028;28;20084;-80
2023/07/24 11:29:51;;;;;;;7.45;4.20;;;;;;;24.02;62.73;98482.88;5051235;28;20092;-79
2023/07/24 11:32:19;;;;;;;5.78;4.70;;;;;;;24.19;65.33;98487.88;5064983;28;20054;-80
2023/07/24 11:34:48;;;;;;;5.53;4.30;;;;;;;24.50;66.60;98472.94;5070499;28;20076;-80
2023/07/24 11:37:15;;;;;;;4.32;3.92;;;;;;;24.95;68.20;98474.03;5070256;28;20136;-80
2023/07/24 11:39:42;;;;;;;6.10;4.78;;;;;;;25.50;68.01;98464.66;5052488;28;20543;-80